sensor_id;sensor_type;location;lat;lon;timestamp;P1;durP1;ratioP1;P2;durP2;ratioP2
52043;SDS011;38053;53.100;6.078;2022-07-09T00:00:50;10.77;;;4.05;;
52043;SDS011;38053;53.100;6.078;2022-07-09T00:03:15;12.65;;;4.07;;
52043;SDS011;38053;53.100;6.078;2022-07-09T00:05:41;13.48;;;4.25;;
52043;SDS011;38053;53.100;6.078;2022-07-09T00:08:07;10.40;;;3.75;;
52043;SDS011;38053;53.100;6.078;2022-07-09T00:10:36;9.43;;;3.63;;
52043;SDS011;38053;53.100;6.078;2022-07-09T00:13:04;15.10;;;4.82;;
52043;SDS011;38053;53.100;6.078;2022-07-09T00:15:33;12.18;;;5.25;;
52043;SDS011;38053;53.100;6.078;2022-07-09T00:17:58;11.98;;;4.30;;
52043;SDS011;38053;53.100;6.078;2022-07-09T00:20:24;13.13;;;5.30;;
52043;SDS011;38053;53.100;6.078;2022-07-09T00:22:50;13.50;;;4.50;;
52043;SDS011;38053;53.100;6.078;2022-07-09T00:25:16;11.43;;;4.90;;
52043;SDS011;38053;53.100;6.078;2022-07-09T00:27:41;8.35;;;4.25;;
52043;SDS011;38053;53.100;6.078;2022-07-09T00:30:07;11.32;;;4.90;;
52043;SDS011;38053;53.100;6.078;2022-07-09T00:32:33;15.20;;;6.45;;
52043;SDS011;38053;53.100;6.078;2022-07-09T00:34:59;11.63;;;4.45;;
52043;SDS011;38053;53.100;6.078;2022-07-09T00:37:25;10.23;;;4.85;;
52043;SDS011;38053;53.100;6.078;2022-07-09T00:39:50;13.43;;;5.38;;
52043;SDS011;38053;53.100;6.078;2022-07-09T00:42:16;14.27;;;5.55;;
52043;SDS011;38053;53.100;6.078;2022-07-09T00:44:42;13.18;;;5.43;;
52043;SDS011;38053;53.100;6.078;2022-07-09T00:47:08;11.82;;;5.35;;
52043;SDS011;38053;53.100;6.078;2022-07-09T00:49:36;8.27;;;4.75;;
52043;SDS011;38053;53.100;6.078;2022-07-09T00:54:31;11.65;;;5.60;;
52043;SDS011;38053;53.100;6.078;2022-07-09T00:56:57;11.82;;;6.00;;
52043;SDS011;38053;53.100;6.078;2022-07-09T00:59:23;10.45;;;5.53;;
52043;SDS011;38053;53.100;6.078;2022-07-09T01:01:49;13.10;;;6.53;;
52043;SDS011;38053;53.100;6.078;2022-07-09T01:04:16;13.75;;;6.00;;
52043;SDS011;38053;53.100;6.078;2022-07-09T01:06:42;11.43;;;6.40;;
52043;SDS011;38053;53.100;6.078;2022-07-09T01:09:08;19.85;;;6.88;;
52043;SDS011;38053;53.100;6.078;2022-07-09T01:11:34;11.30;;;6.43;;
52043;SDS011;38053;53.100;6.078;2022-07-09T01:14:01;12.18;;;6.30;;
52043;SDS011;38053;53.100;6.078;2022-07-09T01:16:30;17.33;;;7.70;;
52043;SDS011;38053;53.100;6.078;2022-07-09T01:18:59;14.55;;;6.75;;
52043;SDS011;38053;53.100;6.078;2022-07-09T01:21:26;10.50;;;5.70;;
52043;SDS011;38053;53.100;6.078;2022-07-09T01:23:51;12.23;;;5.55;;
52043;SDS011;38053;53.100;6.078;2022-07-09T01:26:17;9.63;;;5.82;;
52043;SDS011;38053;53.100;6.078;2022-07-09T01:28:46;14.63;;;6.82;;
52043;SDS011;38053;53.100;6.078;2022-07-09T01:31:13;10.85;;;6.03;;
52043;SDS011;38053;53.100;6.078;2022-07-09T01:33:39;11.65;;;6.28;;
52043;SDS011;38053;53.100;6.078;2022-07-09T01:36:05;14.35;;;6.35;;
52043;SDS011;38053;53.100;6.078;2022-07-09T01:38:32;15.48;;;6.03;;
52043;SDS011;38053;53.100;6.078;2022-07-09T01:40:57;11.90;;;5.55;;
52043;SDS011;38053;53.100;6.078;2022-07-09T01:43:23;9.18;;;4.93;;
52043;SDS011;38053;53.100;6.078;2022-07-09T01:45:49;7.97;;;4.88;;
52043;SDS011;38053;53.100;6.078;2022-07-09T01:48:14;11.57;;;5.20;;
52043;SDS011;38053;53.100;6.078;2022-07-09T01:50:40;11.43;;;4.63;;
52043;SDS011;38053;53.100;6.078;2022-07-09T01:53:06;8.73;;;3.83;;
52043;SDS011;38053;53.100;6.078;2022-07-09T01:55:32;9.23;;;4.00;;
52043;SDS011;38053;53.100;6.078;2022-07-09T01:57:58;10.90;;;4.60;;
52043;SDS011;38053;53.100;6.078;2022-07-09T02:00:24;9.15;;;3.90;;
52043;SDS011;38053;53.100;6.078;2022-07-09T02:02:49;10.65;;;5.38;;
52043;SDS011;38053;53.100;6.078;2022-07-09T02:05:15;13.18;;;4.15;;
52043;SDS011;38053;53.100;6.078;2022-07-09T02:07:41;8.82;;;4.32;;
52043;SDS011;38053;53.100;6.078;2022-07-09T02:10:06;9.52;;;4.22;;
52043;SDS011;38053;53.100;6.078;2022-07-09T02:12:33;9.90;;;4.88;;
52043;SDS011;38053;53.100;6.078;2022-07-09T02:14:58;12.20;;;4.90;;
52043;SDS011;38053;53.100;6.078;2022-07-09T02:17:24;9.50;;;4.13;;
52043;SDS011;38053;53.100;6.078;2022-07-09T02:19:49;10.57;;;4.45;;
52043;SDS011;38053;53.100;6.078;2022-07-09T02:22:15;13.23;;;4.55;;
52043;SDS011;38053;53.100;6.078;2022-07-09T02:24:41;9.35;;;4.07;;
52043;SDS011;38053;53.100;6.078;2022-07-09T02:27:06;8.00;;;4.18;;
52043;SDS011;38053;53.100;6.078;2022-07-09T02:29:32;8.02;;;4.78;;
52043;SDS011;38053;53.100;6.078;2022-07-09T02:31:58;8.68;;;4.13;;
52043;SDS011;38053;53.100;6.078;2022-07-09T02:34:24;11.85;;;5.30;;
52043;SDS011;38053;53.100;6.078;2022-07-09T02:36:50;8.18;;;4.63;;
52043;SDS011;38053;53.100;6.078;2022-07-09T02:39:16;8.38;;;3.97;;
52043;SDS011;38053;53.100;6.078;2022-07-09T02:41:42;11.07;;;3.60;;
52043;SDS011;38053;53.100;6.078;2022-07-09T02:44:08;8.73;;;4.68;;
52043;SDS011;38053;53.100;6.078;2022-07-09T02:46:34;8.10;;;4.43;;
52043;SDS011;38053;53.100;6.078;2022-07-09T02:48:59;8.52;;;3.63;;
52043;SDS011;38053;53.100;6.078;2022-07-09T02:51:25;7.95;;;3.20;;
52043;SDS011;38053;53.100;6.078;2022-07-09T02:53:51;9.90;;;3.60;;
52043;SDS011;38053;53.100;6.078;2022-07-09T02:56:16;5.63;;;3.50;;
52043;SDS011;38053;53.100;6.078;2022-07-09T02:58:42;5.88;;;3.05;;
52043;SDS011;38053;53.100;6.078;2022-07-09T03:01:08;6.80;;;3.03;;
52043;SDS011;38053;53.100;6.078;2022-07-09T03:03:33;6.70;;;3.20;;
52043;SDS011;38053;53.100;6.078;2022-07-09T03:06:02;9.40;;;3.22;;
52043;SDS011;38053;53.100;6.078;2022-07-09T03:08:30;8.32;;;4.00;;
52043;SDS011;38053;53.100;6.078;2022-07-09T03:10:56;11.57;;;3.13;;
52043;SDS011;38053;53.100;6.078;2022-07-09T03:13:21;7.25;;;3.10;;
52043;SDS011;38053;53.100;6.078;2022-07-09T03:15:47;9.52;;;3.88;;
52043;SDS011;38053;53.100;6.078;2022-07-09T03:18:14;7.95;;;3.50;;
52043;SDS011;38053;53.100;6.078;2022-07-09T03:20:39;8.18;;;3.67;;
52043;SDS011;38053;53.100;6.078;2022-07-09T03:23:05;7.70;;;3.72;;
52043;SDS011;38053;53.100;6.078;2022-07-09T03:25:31;6.55;;;3.28;;
52043;SDS011;38053;53.100;6.078;2022-07-09T03:27:57;11.00;;;4.93;;
52043;SDS011;38053;53.100;6.078;2022-07-09T03:30:22;6.40;;;3.40;;
52043;SDS011;38053;53.100;6.078;2022-07-09T03:32:48;15.57;;;4.28;;
52043;SDS011;38053;53.100;6.078;2022-07-09T03:35:15;11.95;;;4.57;;
52043;SDS011;38053;53.100;6.078;2022-07-09T03:37:41;9.15;;;4.10;;
52043;SDS011;38053;53.100;6.078;2022-07-09T03:40:07;12.70;;;4.53;;
52043;SDS011;38053;53.100;6.078;2022-07-09T03:42:33;10.43;;;3.65;;
52043;SDS011;38053;53.100;6.078;2022-07-09T03:44:58;10.05;;;4.30;;
52043;SDS011;38053;53.100;6.078;2022-07-09T03:47:24;7.40;;;4.15;;
52043;SDS011;38053;53.100;6.078;2022-07-09T03:49:50;8.18;;;3.42;;
52043;SDS011;38053;53.100;6.078;2022-07-09T03:52:16;11.02;;;4.30;;
52043;SDS011;38053;53.100;6.078;2022-07-09T03:54:41;10.27;;;4.45;;
52043;SDS011;38053;53.100;6.078;2022-07-09T03:57:07;12.98;;;4.72;;
52043;SDS011;38053;53.100;6.078;2022-07-09T03:59:33;7.85;;;4.53;;
52043;SDS011;38053;53.100;6.078;2022-07-09T04:01:58;10.23;;;4.20;;
52043;SDS011;38053;53.100;6.078;2022-07-09T04:04:24;8.05;;;4.20;;
52043;SDS011;38053;53.100;6.078;2022-07-09T04:06:50;11.90;;;4.03;;
52043;SDS011;38053;53.100;6.078;2022-07-09T04:09:16;7.13;;;3.83;;
52043;SDS011;38053;53.100;6.078;2022-07-09T04:11:41;10.77;;;5.15;;
52043;SDS011;38053;53.100;6.078;2022-07-09T04:14:07;7.80;;;4.18;;
52043;SDS011;38053;53.100;6.078;2022-07-09T04:16:33;8.15;;;4.50;;
52043;SDS011;38053;53.100;6.078;2022-07-09T04:18:58;9.15;;;4.63;;
52043;SDS011;38053;53.100;6.078;2022-07-09T04:21:24;11.45;;;5.57;;
52043;SDS011;38053;53.100;6.078;2022-07-09T04:23:50;8.32;;;4.78;;
52043;SDS011;38053;53.100;6.078;2022-07-09T04:26:16;11.38;;;4.80;;
52043;SDS011;38053;53.100;6.078;2022-07-09T04:28:46;10.80;;;4.82;;
52043;SDS011;38053;53.100;6.078;2022-07-09T04:31:11;9.15;;;4.35;;
52043;SDS011;38053;53.100;6.078;2022-07-09T04:33:37;8.70;;;4.28;;
52043;SDS011;38053;53.100;6.078;2022-07-09T04:36:03;9.38;;;4.57;;
52043;SDS011;38053;53.100;6.078;2022-07-09T04:38:29;10.40;;;3.78;;
52043;SDS011;38053;53.100;6.078;2022-07-09T04:40:56;8.00;;;4.18;;
52043;SDS011;38053;53.100;6.078;2022-07-09T04:43:21;7.18;;;3.63;;
52043;SDS011;38053;53.100;6.078;2022-07-09T04:45:47;9.80;;;4.47;;
52043;SDS011;38053;53.100;6.078;2022-07-09T04:48:12;6.85;;;3.90;;
52043;SDS011;38053;53.100;6.078;2022-07-09T04:50:38;7.82;;;3.85;;
52043;SDS011;38053;53.100;6.078;2022-07-09T04:53:04;9.82;;;3.55;;
52043;SDS011;38053;53.100;6.078;2022-07-09T04:55:30;6.90;;;3.90;;
52043;SDS011;38053;53.100;6.078;2022-07-09T04:57:55;7.82;;;3.42;;
52043;SDS011;38053;53.100;6.078;2022-07-09T05:00:21;7.13;;;3.53;;
52043;SDS011;38053;53.100;6.078;2022-07-09T05:02:47;8.13;;;3.50;;
52043;SDS011;38053;53.100;6.078;2022-07-09T05:05:13;6.60;;;2.88;;
52043;SDS011;38053;53.100;6.078;2022-07-09T05:07:39;6.93;;;3.53;;
52043;SDS011;38053;53.100;6.078;2022-07-09T05:10:06;6.65;;;2.92;;
52043;SDS011;38053;53.100;6.078;2022-07-09T05:12:33;6.88;;;2.85;;
52043;SDS011;38053;53.100;6.078;2022-07-09T05:15:02;10.70;;;3.67;;
52043;SDS011;38053;53.100;6.078;2022-07-09T05:17:28;5.28;;;2.90;;
52043;SDS011;38053;53.100;6.078;2022-07-09T05:19:58;7.57;;;2.70;;
52043;SDS011;38053;53.100;6.078;2022-07-09T05:22:24;6.07;;;2.67;;
52043;SDS011;38053;53.100;6.078;2022-07-09T05:24:50;6.20;;;2.63;;
52043;SDS011;38053;53.100;6.078;2022-07-09T05:27:15;6.15;;;2.78;;
52043;SDS011;38053;53.100;6.078;2022-07-09T05:29:41;4.68;;;2.60;;
52043;SDS011;38053;53.100;6.078;2022-07-09T05:32:07;8.32;;;2.65;;
52043;SDS011;38053;53.100;6.078;2022-07-09T05:34:33;8.48;;;3.00;;
52043;SDS011;38053;53.100;6.078;2022-07-09T05:36:58;5.70;;;2.72;;
52043;SDS011;38053;53.100;6.078;2022-07-09T05:39:24;7.10;;;2.90;;
52043;SDS011;38053;53.100;6.078;2022-07-09T05:41:50;8.32;;;2.78;;
52043;SDS011;38053;53.100;6.078;2022-07-09T05:44:15;5.55;;;2.50;;
52043;SDS011;38053;53.100;6.078;2022-07-09T05:46:41;7.00;;;2.92;;
52043;SDS011;38053;53.100;6.078;2022-07-09T05:49:06;5.97;;;2.63;;
52043;SDS011;38053;53.100;6.078;2022-07-09T05:51:33;6.53;;;2.88;;
52043;SDS011;38053;53.100;6.078;2022-07-09T05:53:59;9.32;;;3.22;;
52043;SDS011;38053;53.100;6.078;2022-07-09T05:56:24;7.90;;;2.50;;
52043;SDS011;38053;53.100;6.078;2022-07-09T05:58:50;5.65;;;2.35;;
52043;SDS011;38053;53.100;6.078;2022-07-09T06:01:16;6.72;;;2.55;;
52043;SDS011;38053;53.100;6.078;2022-07-09T06:03:42;5.13;;;2.70;;
52043;SDS011;38053;53.100;6.078;2022-07-09T06:06:08;5.40;;;2.10;;
52043;SDS011;38053;53.100;6.078;2022-07-09T06:08:34;6.28;;;2.08;;
52043;SDS011;38053;53.100;6.078;2022-07-09T06:11:01;8.57;;;2.25;;
52043;SDS011;38053;53.100;6.078;2022-07-09T06:13:27;6.43;;;2.35;;
52043;SDS011;38053;53.100;6.078;2022-07-09T06:15:53;6.85;;;2.58;;
52043;SDS011;38053;53.100;6.078;2022-07-09T06:18:19;5.25;;;2.22;;
52043;SDS011;38053;53.100;6.078;2022-07-09T06:20:45;5.65;;;2.00;;
52043;SDS011;38053;53.100;6.078;2022-07-09T06:23:11;4.57;;;2.08;;
52043;SDS011;38053;53.100;6.078;2022-07-09T06:25:40;3.75;;;1.95;;
52043;SDS011;38053;53.100;6.078;2022-07-09T06:28:06;7.68;;;2.55;;
52043;SDS011;38053;53.100;6.078;2022-07-09T06:30:32;6.90;;;2.67;;
52043;SDS011;38053;53.100;6.078;2022-07-09T06:32:59;3.85;;;2.03;;
52043;SDS011;38053;53.100;6.078;2022-07-09T06:35:25;8.82;;;2.25;;
52043;SDS011;38053;53.100;6.078;2022-07-09T06:37:51;4.55;;;2.40;;
52043;SDS011;38053;53.100;6.078;2022-07-09T06:40:16;6.03;;;2.40;;
52043;SDS011;38053;53.100;6.078;2022-07-09T06:42:42;5.10;;;1.80;;
52043;SDS011;38053;53.100;6.078;2022-07-09T06:45:08;5.40;;;1.95;;
52043;SDS011;38053;53.100;6.078;2022-07-09T06:47:34;7.28;;;2.53;;
52043;SDS011;38053;53.100;6.078;2022-07-09T06:50:00;8.20;;;2.33;;
52043;SDS011;38053;53.100;6.078;2022-07-09T06:52:26;4.38;;;1.70;;
52043;SDS011;38053;53.100;6.078;2022-07-09T06:54:52;9.60;;;2.60;;
52043;SDS011;38053;53.100;6.078;2022-07-09T06:57:18;5.82;;;2.42;;
52043;SDS011;38053;53.100;6.078;2022-07-09T06:59:44;7.07;;;2.50;;
52043;SDS011;38053;53.100;6.078;2022-07-09T07:02:11;7.60;;;2.25;;
52043;SDS011;38053;53.100;6.078;2022-07-09T07:04:37;6.82;;;2.08;;
52043;SDS011;38053;53.100;6.078;2022-07-09T07:07:03;3.08;;;1.45;;
52043;SDS011;38053;53.100;6.078;2022-07-09T07:09:29;7.65;;;2.53;;
52043;SDS011;38053;53.100;6.078;2022-07-09T07:11:55;6.22;;;1.70;;
52043;SDS011;38053;53.100;6.078;2022-07-09T07:14:21;8.32;;;1.83;;
52043;SDS011;38053;53.100;6.078;2022-07-09T07:16:47;4.40;;;1.52;;
52043;SDS011;38053;53.100;6.078;2022-07-09T07:19:13;5.35;;;1.80;;
52043;SDS011;38053;53.100;6.078;2022-07-09T07:21:38;4.72;;;1.83;;
52043;SDS011;38053;53.100;6.078;2022-07-09T07:24:05;7.97;;;1.65;;
52043;SDS011;38053;53.100;6.078;2022-07-09T07:26:32;5.75;;;1.88;;
52043;SDS011;38053;53.100;6.078;2022-07-09T07:28:58;7.35;;;1.48;;
52043;SDS011;38053;53.100;6.078;2022-07-09T07:31:24;7.85;;;1.67;;
52043;SDS011;38053;53.100;6.078;2022-07-09T07:33:50;4.57;;;1.95;;
52043;SDS011;38053;53.100;6.078;2022-07-09T07:36:16;4.90;;;1.95;;
52043;SDS011;38053;53.100;6.078;2022-07-09T07:38:42;8.95;;;1.52;;
52043;SDS011;38053;53.100;6.078;2022-07-09T07:41:08;6.13;;;1.70;;
52043;SDS011;38053;53.100;6.078;2022-07-09T07:43:33;7.38;;;1.83;;
52043;SDS011;38053;53.100;6.078;2022-07-09T07:45:59;5.68;;;1.58;;
52043;SDS011;38053;53.100;6.078;2022-07-09T07:48:24;6.60;;;1.60;;
52043;SDS011;38053;53.100;6.078;2022-07-09T07:50:52;4.90;;;1.73;;
52043;SDS011;38053;53.100;6.078;2022-07-09T07:53:19;10.55;;;2.25;;
52043;SDS011;38053;53.100;6.078;2022-07-09T07:55:46;6.10;;;1.90;;
52043;SDS011;38053;53.100;6.078;2022-07-09T07:58:11;4.00;;;1.40;;
52043;SDS011;38053;53.100;6.078;2022-07-09T08:00:37;6.68;;;1.90;;
52043;SDS011;38053;53.100;6.078;2022-07-09T08:03:03;7.18;;;1.40;;
52043;SDS011;38053;53.100;6.078;2022-07-09T08:05:29;6.85;;;2.03;;
52043;SDS011;38053;53.100;6.078;2022-07-09T08:07:54;5.95;;;1.73;;
52043;SDS011;38053;53.100;6.078;2022-07-09T08:10:20;12.10;;;2.13;;
52043;SDS011;38053;53.100;6.078;2022-07-09T08:12:46;5.68;;;1.17;;
52043;SDS011;38053;53.100;6.078;2022-07-09T08:15:12;8.70;;;1.55;;
52043;SDS011;38053;53.100;6.078;2022-07-09T08:17:38;3.25;;;1.20;;
52043;SDS011;38053;53.100;6.078;2022-07-09T08:20:04;5.88;;;1.65;;
52043;SDS011;38053;53.100;6.078;2022-07-09T08:22:30;6.50;;;1.92;;
52043;SDS011;38053;53.100;6.078;2022-07-09T08:24:56;4.10;;;1.27;;
52043;SDS011;38053;53.100;6.078;2022-07-09T08:27:21;4.70;;;1.40;;
52043;SDS011;38053;53.100;6.078;2022-07-09T08:29:47;3.72;;;1.23;;
52043;SDS011;38053;53.100;6.078;2022-07-09T08:32:14;3.60;;;1.08;;
52043;SDS011;38053;53.100;6.078;2022-07-09T08:34:40;3.58;;;1.05;;
52043;SDS011;38053;53.100;6.078;2022-07-09T08:37:06;7.18;;;2.85;;
52043;SDS011;38053;53.100;6.078;2022-07-09T08:39:31;6.95;;;1.55;;
52043;SDS011;38053;53.100;6.078;2022-07-09T08:41:58;5.78;;;1.27;;
52043;SDS011;38053;53.100;6.078;2022-07-09T08:44:26;4.35;;;1.23;;
52043;SDS011;38053;53.100;6.078;2022-07-09T08:46:55;3.78;;;1.60;;
52043;SDS011;38053;53.100;6.078;2022-07-09T08:49:24;6.90;;;1.63;;
52043;SDS011;38053;53.100;6.078;2022-07-09T08:51:51;4.10;;;1.40;;
52043;SDS011;38053;53.100;6.078;2022-07-09T08:54:20;6.85;;;1.50;;
52043;SDS011;38053;53.100;6.078;2022-07-09T08:56:46;7.45;;;1.20;;
52043;SDS011;38053;53.100;6.078;2022-07-09T08:59:12;5.63;;;1.45;;
52043;SDS011;38053;53.100;6.078;2022-07-09T09:01:37;5.50;;;1.17;;
52043;SDS011;38053;53.100;6.078;2022-07-09T09:04:03;6.28;;;1.15;;
52043;SDS011;38053;53.100;6.078;2022-07-09T09:06:29;8.10;;;1.42;;
52043;SDS011;38053;53.100;6.078;2022-07-09T09:09:06;3.78;;;1.30;;
52043;SDS011;38053;53.100;6.078;2022-07-09T09:11:36;4.80;;;1.00;;
52043;SDS011;38053;53.100;6.078;2022-07-09T09:14:02;9.98;;;1.60;;
52043;SDS011;38053;53.100;6.078;2022-07-09T09:16:28;6.30;;;1.10;;
52043;SDS011;38053;53.100;6.078;2022-07-09T09:18:54;5.97;;;1.48;;
52043;SDS011;38053;53.100;6.078;2022-07-09T09:21:25;5.60;;;1.85;;
52043;SDS011;38053;53.100;6.078;2022-07-09T09:23:52;5.47;;;1.65;;
52043;SDS011;38053;53.100;6.078;2022-07-09T09:26:20;5.13;;;1.40;;
52043;SDS011;38053;53.100;6.078;2022-07-09T09:31:26;7.68;;;1.73;;
52043;SDS011;38053;53.100;6.078;2022-07-09T09:33:54;7.28;;;1.73;;
52043;SDS011;38053;53.100;6.078;2022-07-09T09:36:28;4.15;;;1.33;;
52043;SDS011;38053;53.100;6.078;2022-07-09T09:41:44;4.53;;;1.00;;
52043;SDS011;38053;53.100;6.078;2022-07-09T09:44:13;3.22;;;1.15;;
52043;SDS011;38053;53.100;6.078;2022-07-09T09:46:40;5.82;;;1.08;;
52043;SDS011;38053;53.100;6.078;2022-07-09T09:49:08;4.03;;;1.38;;
52043;SDS011;38053;53.100;6.078;2022-07-09T09:52:21;5.07;;;1.27;;
52043;SDS011;38053;53.100;6.078;2022-07-09T09:54:27;7.55;;;2.03;;
52043;SDS011;38053;53.100;6.078;2022-07-09T09:56:53;6.47;;;1.30;;
52043;SDS011;38053;53.100;6.078;2022-07-09T09:59:19;5.18;;;1.38;;
52043;SDS011;38053;53.100;6.078;2022-07-09T10:01:45;8.10;;;1.48;;
52043;SDS011;38053;53.100;6.078;2022-07-09T10:04:12;5.82;;;1.30;;
52043;SDS011;38053;53.100;6.078;2022-07-09T10:06:40;5.40;;;1.70;;
52043;SDS011;38053;53.100;6.078;2022-07-09T10:09:07;6.38;;;1.40;;
52043;SDS011;38053;53.100;6.078;2022-07-09T10:11:46;5.63;;;1.27;;
52043;SDS011;38053;53.100;6.078;2022-07-09T10:14:32;8.05;;;2.10;;
52043;SDS011;38053;53.100;6.078;2022-07-09T10:17:14;11.90;;;2.10;;
52043;SDS011;38053;53.100;6.078;2022-07-09T10:19:51;10.18;;;2.17;;
52043;SDS011;38053;53.100;6.078;2022-07-09T10:22:19;6.50;;;1.65;;
52043;SDS011;38053;53.100;6.078;2022-07-09T10:24:45;4.82;;;1.10;;
52043;SDS011;38053;53.100;6.078;2022-07-09T10:27:14;6.75;;;3.17;;
52043;SDS011;38053;53.100;6.078;2022-07-09T10:32:25;7.18;;;1.38;;
52043;SDS011;38053;53.100;6.078;2022-07-09T10:35:01;6.07;;;1.63;;
52043;SDS011;38053;53.100;6.078;2022-07-09T10:42:40;6.03;;;1.65;;
52043;SDS011;38053;53.100;6.078;2022-07-09T10:45:19;7.80;;;1.88;;
52043;SDS011;38053;53.100;6.078;2022-07-09T10:47:49;5.82;;;1.85;;
52043;SDS011;38053;53.100;6.078;2022-07-09T10:50:17;7.30;;;1.73;;
52043;SDS011;38053;53.100;6.078;2022-07-09T10:52:43;11.35;;;3.33;;
52043;SDS011;38053;53.100;6.078;2022-07-09T10:55:09;5.05;;;1.40;;
52043;SDS011;38053;53.100;6.078;2022-07-09T10:57:35;8.52;;;1.40;;
52043;SDS011;38053;53.100;6.078;2022-07-09T11:00:01;5.25;;;1.13;;
52043;SDS011;38053;53.100;6.078;2022-07-09T11:02:27;7.57;;;1.55;;
52043;SDS011;38053;53.100;6.078;2022-07-09T11:04:53;5.18;;;1.75;;
52043;SDS011;38053;53.100;6.078;2022-07-09T11:07:22;8.05;;;1.45;;
52043;SDS011;38053;53.100;6.078;2022-07-09T11:09:49;8.38;;;2.25;;
52043;SDS011;38053;53.100;6.078;2022-07-09T11:12:16;7.22;;;2.47;;
52043;SDS011;38053;53.100;6.078;2022-07-09T11:14:44;8.60;;;1.60;;
52043;SDS011;38053;53.100;6.078;2022-07-09T11:17:13;5.53;;;1.50;;
52043;SDS011;38053;53.100;6.078;2022-07-09T11:19:48;6.93;;;1.67;;
52043;SDS011;38053;53.100;6.078;2022-07-09T11:22:17;5.25;;;1.27;;
52043;SDS011;38053;53.100;6.078;2022-07-09T11:24:43;11.13;;;1.60;;
52043;SDS011;38053;53.100;6.078;2022-07-09T11:27:09;8.27;;;1.85;;
52043;SDS011;38053;53.100;6.078;2022-07-09T11:29:35;6.38;;;1.15;;
52043;SDS011;38053;53.100;6.078;2022-07-09T11:32:01;3.67;;;1.13;;
52043;SDS011;38053;53.100;6.078;2022-07-09T11:34:28;5.05;;;1.13;;
52043;SDS011;38053;53.100;6.078;2022-07-09T11:36:57;3.75;;;1.15;;
52043;SDS011;38053;53.100;6.078;2022-07-09T11:39:24;14.57;;;3.22;;
52043;SDS011;38053;53.100;6.078;2022-07-09T11:41:55;4.57;;;1.30;;
52043;SDS011;38053;53.100;6.078;2022-07-09T11:44:29;3.95;;;1.13;;
52043;SDS011;38053;53.100;6.078;2022-07-09T11:49:38;4.47;;;1.13;;
52043;SDS011;38053;53.100;6.078;2022-07-09T11:52:24;7.45;;;1.20;;
52043;SDS011;38053;53.100;6.078;2022-07-09T11:57:57;3.30;;;1.13;;
52043;SDS011;38053;53.100;6.078;2022-07-09T12:00:27;4.93;;;1.52;;
52043;SDS011;38053;53.100;6.078;2022-07-09T12:02:55;4.47;;;1.10;;
52043;SDS011;38053;53.100;6.078;2022-07-09T12:07:58;5.75;;;1.60;;
52043;SDS011;38053;53.100;6.078;2022-07-09T12:10:29;5.00;;;1.60;;
52043;SDS011;38053;53.100;6.078;2022-07-09T12:13:02;6.05;;;2.15;;
52043;SDS011;38053;53.100;6.078;2022-07-09T12:15:29;5.03;;;1.20;;
52043;SDS011;38053;53.100;6.078;2022-07-09T12:17:59;4.50;;;1.40;;
52043;SDS011;38053;53.100;6.078;2022-07-09T12:20:29;2.95;;;0.93;;
52043;SDS011;38053;53.100;6.078;2022-07-09T12:25:22;3.05;;;0.95;;
52043;SDS011;38053;53.100;6.078;2022-07-09T12:27:48;3.67;;;1.00;;
52043;SDS011;38053;53.100;6.078;2022-07-09T12:30:14;4.95;;;0.90;;
52043;SDS011;38053;53.100;6.078;2022-07-09T12:32:41;3.85;;;1.20;;
52043;SDS011;38053;53.100;6.078;2022-07-09T12:35:08;5.35;;;1.05;;
52043;SDS011;38053;53.100;6.078;2022-07-09T12:37:35;5.80;;;1.30;;
52043;SDS011;38053;53.100;6.078;2022-07-09T12:40:02;3.60;;;0.88;;
52043;SDS011;38053;53.100;6.078;2022-07-09T12:42:29;2.60;;;0.90;;
52043;SDS011;38053;53.100;6.078;2022-07-09T12:44:55;3.50;;;1.05;;
52043;SDS011;38053;53.100;6.078;2022-07-09T12:47:20;3.65;;;0.98;;
52043;SDS011;38053;53.100;6.078;2022-07-09T12:49:46;4.30;;;1.17;;
52043;SDS011;38053;53.100;6.078;2022-07-09T12:52:12;2.72;;;0.98;;
52043;SDS011;38053;53.100;6.078;2022-07-09T12:54:37;5.70;;;1.50;;
52043;SDS011;38053;53.100;6.078;2022-07-09T12:57:03;7.53;;;1.90;;
52043;SDS011;38053;53.100;6.078;2022-07-09T12:59:29;2.90;;;0.85;;
52043;SDS011;38053;53.100;6.078;2022-07-09T13:01:55;7.85;;;1.10;;
52043;SDS011;38053;53.100;6.078;2022-07-09T13:04:21;5.20;;;1.92;;
52043;SDS011;38053;53.100;6.078;2022-07-09T13:06:47;4.05;;;1.17;;
52043;SDS011;38053;53.100;6.078;2022-07-09T13:09:12;4.28;;;1.20;;
52043;SDS011;38053;53.100;6.078;2022-07-09T13:11:38;8.45;;;1.67;;
52043;SDS011;38053;53.100;6.078;2022-07-09T13:14:04;6.05;;;1.58;;
52043;SDS011;38053;53.100;6.078;2022-07-09T13:16:30;2.13;;;0.80;;
52043;SDS011;38053;53.100;6.078;2022-07-09T13:18:56;4.32;;;1.65;;
52043;SDS011;38053;53.100;6.078;2022-07-09T13:21:22;5.43;;;1.02;;
52043;SDS011;38053;53.100;6.078;2022-07-09T13:23:48;3.45;;;0.93;;
52043;SDS011;38053;53.100;6.078;2022-07-09T13:26:15;5.18;;;1.25;;
52043;SDS011;38053;53.100;6.078;2022-07-09T13:28:41;5.70;;;1.45;;
52043;SDS011;38053;53.100;6.078;2022-07-09T13:31:07;3.70;;;1.13;;
52043;SDS011;38053;53.100;6.078;2022-07-09T13:33:34;3.53;;;0.93;;
52043;SDS011;38053;53.100;6.078;2022-07-09T13:36:00;7.78;;;1.27;;
52043;SDS011;38053;53.100;6.078;2022-07-09T13:38:28;4.32;;;1.17;;
52043;SDS011;38053;53.100;6.078;2022-07-09T13:40:53;4.22;;;1.17;;
52043;SDS011;38053;53.100;6.078;2022-07-09T13:43:19;7.07;;;1.13;;
52043;SDS011;38053;53.100;6.078;2022-07-09T13:45:45;5.72;;;1.55;;
52043;SDS011;38053;53.100;6.078;2022-07-09T13:48:11;10.27;;;2.15;;
52043;SDS011;38053;53.100;6.078;2022-07-09T13:50:39;5.95;;;1.20;;
52043;SDS011;38053;53.100;6.078;2022-07-09T13:53:10;5.55;;;1.33;;
52043;SDS011;38053;53.100;6.078;2022-07-09T13:55:39;6.97;;;1.55;;
52043;SDS011;38053;53.100;6.078;2022-07-09T13:58:05;6.88;;;2.08;;
52043;SDS011;38053;53.100;6.078;2022-07-09T14:00:33;5.85;;;1.05;;
52043;SDS011;38053;53.100;6.078;2022-07-09T14:02:59;4.57;;;0.98;;
52043;SDS011;38053;53.100;6.078;2022-07-09T14:05:48;7.95;;;1.48;;
52043;SDS011;38053;53.100;6.078;2022-07-09T14:08:16;4.28;;;1.30;;
52043;SDS011;38053;53.100;6.078;2022-07-09T14:10:50;7.55;;;2.00;;
52043;SDS011;38053;53.100;6.078;2022-07-09T14:13:41;11.02;;;2.28;;
52043;SDS011;38053;53.100;6.078;2022-07-09T14:16:11;10.05;;;1.42;;
52043;SDS011;38053;53.100;6.078;2022-07-09T14:18:45;4.70;;;1.27;;
52043;SDS011;38053;53.100;6.078;2022-07-09T14:21:18;6.30;;;1.88;;
52043;SDS011;38053;53.100;6.078;2022-07-09T14:23:50;11.15;;;3.38;;
52043;SDS011;38053;53.100;6.078;2022-07-09T14:26:16;9.15;;;1.48;;
52043;SDS011;38053;53.100;6.078;2022-07-09T14:28:46;5.03;;;1.33;;
52043;SDS011;38053;53.100;6.078;2022-07-09T14:31:43;9.65;;;1.40;;
52043;SDS011;38053;53.100;6.078;2022-07-09T14:34:11;4.72;;;0.95;;
52043;SDS011;38053;53.100;6.078;2022-07-09T14:36:42;7.35;;;2.08;;
52043;SDS011;38053;53.100;6.078;2022-07-09T14:39:11;3.22;;;1.52;;
52043;SDS011;38053;53.100;6.078;2022-07-09T14:41:36;6.78;;;1.40;;
52043;SDS011;38053;53.100;6.078;2022-07-09T14:47:54;5.05;;;1.23;;
52043;SDS011;38053;53.100;6.078;2022-07-09T14:50:23;3.40;;;0.80;;
52043;SDS011;38053;53.100;6.078;2022-07-09T14:52:52;3.33;;;1.33;;
52043;SDS011;38053;53.100;6.078;2022-07-09T14:55:41;4.85;;;1.10;;
52043;SDS011;38053;53.100;6.078;2022-07-09T14:58:06;4.53;;;0.90;;
52043;SDS011;38053;53.100;6.078;2022-07-09T15:00:37;3.38;;;0.90;;
52043;SDS011;38053;53.100;6.078;2022-07-09T15:03:12;5.78;;;0.73;;
52043;SDS011;38053;53.100;6.078;2022-07-09T15:06:07;5.60;;;0.98;;
52043;SDS011;38053;53.100;6.078;2022-07-09T15:08:35;6.15;;;1.17;;
52043;SDS011;38053;53.100;6.078;2022-07-09T15:11:17;2.13;;;0.60;;
52043;SDS011;38053;53.100;6.078;2022-07-09T15:13:46;4.57;;;1.05;;
52043;SDS011;38053;53.100;6.078;2022-07-09T15:16:13;2.80;;;0.95;;